sensor_id;sensor_type;location;lat;lon;timestamp;P1;durP1;ratioP1;P2;durP2;ratioP2
14554;SDS011;7364;50.870;4.722;2023-06-26T00:00:33;6.10;;;5.20;;
14554;SDS011;7364;50.870;4.722;2023-06-26T00:03:02;6.07;;;4.50;;
14554;SDS011;7364;50.870;4.722;2023-06-26T00:05:29;11.60;;;5.07;;
14554;SDS011;7364;50.870;4.722;2023-06-26T00:07:58;7.43;;;5.07;;
14554;SDS011;7364;50.870;4.722;2023-06-26T00:10:27;6.47;;;4.73;;
14554;SDS011;7364;50.870;4.722;2023-06-26T00:12:54;4.93;;;4.07;;
14554;SDS011;7364;50.870;4.722;2023-06-26T00:15:21;8.00;;;4.77;;
14554;SDS011;7364;50.870;4.722;2023-06-26T00:17:49;7.37;;;4.70;;
14554;SDS011;7364;50.870;4.722;2023-06-26T00:20:16;5.00;;;4.47;;
14554;SDS011;7364;50.870;4.722;2023-06-26T00:22:44;8.90;;;5.17;;
14554;SDS011;7364;50.870;4.722;2023-06-26T00:25:11;8.13;;;5.07;;
14554;SDS011;7364;50.870;4.722;2023-06-26T00:27:40;9.73;;;4.77;;
14554;SDS011;7364;50.870;4.722;2023-06-26T00:30:08;6.10;;;4.80;;
14554;SDS011;7364;50.870;4.722;2023-06-26T00:32:36;8.83;;;5.17;;
14554;SDS011;7364;50.870;4.722;2023-06-26T00:35:03;6.30;;;5.17;;
14554;SDS011;7364;50.870;4.722;2023-06-26T00:37:31;5.17;;;4.43;;
14554;SDS011;7364;50.870;4.722;2023-06-26T00:39:58;7.67;;;4.97;;
14554;SDS011;7364;50.870;4.722;2023-06-26T00:42:26;6.50;;;4.50;;
14554;SDS011;7364;50.870;4.722;2023-06-26T00:44:54;6.33;;;4.67;;
14554;SDS011;7364;50.870;4.722;2023-06-26T00:47:22;5.90;;;4.97;;
14554;SDS011;7364;50.870;4.722;2023-06-26T00:49:50;7.00;;;4.97;;
14554;SDS011;7364;50.870;4.722;2023-06-26T00:52:18;5.43;;;4.30;;
14554;SDS011;7364;50.870;4.722;2023-06-26T00:54:46;9.67;;;5.30;;
14554;SDS011;7364;50.870;4.722;2023-06-26T00:57:13;7.03;;;5.00;;
14554;SDS011;7364;50.870;4.722;2023-06-26T00:59:40;7.97;;;4.60;;
14554;SDS011;7364;50.870;4.722;2023-06-26T01:02:09;6.27;;;4.90;;
14554;SDS011;7364;50.870;4.722;2023-06-26T01:04:37;5.03;;;4.40;;
14554;SDS011;7364;50.870;4.722;2023-06-26T01:07:12;7.33;;;4.70;;
14554;SDS011;7364;50.870;4.722;2023-06-26T01:09:40;9.30;;;4.57;;
14554;SDS011;7364;50.870;4.722;2023-06-26T01:12:08;6.27;;;4.77;;
14554;SDS011;7364;50.870;4.722;2023-06-26T01:14:35;6.27;;;4.50;;
14554;SDS011;7364;50.870;4.722;2023-06-26T01:17:03;6.50;;;4.27;;
14554;SDS011;7364;50.870;4.722;2023-06-26T01:19:32;6.03;;;4.23;;
14554;SDS011;7364;50.870;4.722;2023-06-26T01:22:02;6.17;;;4.10;;
14554;SDS011;7364;50.870;4.722;2023-06-26T01:24:42;6.20;;;4.00;;
14554;SDS011;7364;50.870;4.722;2023-06-26T01:27:22;5.63;;;4.13;;
14554;SDS011;7364;50.870;4.722;2023-06-26T01:29:51;5.33;;;3.80;;
14554;SDS011;7364;50.870;4.722;2023-06-26T01:32:20;5.27;;;3.50;;
14554;SDS011;7364;50.870;4.722;2023-06-26T01:34:48;5.77;;;4.00;;
14554;SDS011;7364;50.870;4.722;2023-06-26T01:37:16;5.87;;;4.13;;
14554;SDS011;7364;50.870;4.722;2023-06-26T01:39:44;5.63;;;4.10;;
14554;SDS011;7364;50.870;4.722;2023-06-26T01:42:11;6.53;;;3.77;;
14554;SDS011;7364;50.870;4.722;2023-06-26T01:44:42;4.13;;;3.37;;
14554;SDS011;7364;50.870;4.722;2023-06-26T01:47:14;5.20;;;3.40;;
14554;SDS011;7364;50.870;4.722;2023-06-26T01:49:47;4.60;;;3.53;;
14554;SDS011;7364;50.870;4.722;2023-06-26T01:52:20;8.83;;;4.17;;
14554;SDS011;7364;50.870;4.722;2023-06-26T01:54:54;6.63;;;4.17;;
14554;SDS011;7364;50.870;4.722;2023-06-26T01:57:25;4.73;;;3.33;;
14554;SDS011;7364;50.870;4.722;2023-06-26T01:59:55;4.67;;;3.60;;
14554;SDS011;7364;50.870;4.722;2023-06-26T02:02:23;6.43;;;3.77;;
14554;SDS011;7364;50.870;4.722;2023-06-26T02:04:51;4.77;;;3.30;;
14554;SDS011;7364;50.870;4.722;2023-06-26T02:07:19;7.63;;;3.70;;
14554;SDS011;7364;50.870;4.722;2023-06-26T02:09:46;7.57;;;4.40;;
14554;SDS011;7364;50.870;4.722;2023-06-26T02:12:13;7.43;;;3.90;;
14554;SDS011;7364;50.870;4.722;2023-06-26T02:14:41;4.97;;;3.57;;
14554;SDS011;7364;50.870;4.722;2023-06-26T02:17:09;5.90;;;3.13;;
14554;SDS011;7364;50.870;4.722;2023-06-26T02:19:37;5.70;;;3.43;;
14554;SDS011;7364;50.870;4.722;2023-06-26T02:22:10;5.93;;;3.90;;
14554;SDS011;7364;50.870;4.722;2023-06-26T02:24:38;5.37;;;3.70;;
14554;SDS011;7364;50.870;4.722;2023-06-26T02:27:05;6.43;;;3.50;;
14554;SDS011;7364;50.870;4.722;2023-06-26T02:29:32;5.50;;;3.87;;
14554;SDS011;7364;50.870;4.722;2023-06-26T02:32:00;4.70;;;3.30;;
14554;SDS011;7364;50.870;4.722;2023-06-26T02:34:30;5.87;;;3.23;;
14554;SDS011;7364;50.870;4.722;2023-06-26T02:36:58;5.20;;;3.57;;
14554;SDS011;7364;50.870;4.722;2023-06-26T02:39:25;8.00;;;3.67;;
14554;SDS011;7364;50.870;4.722;2023-06-26T02:41:53;6.33;;;3.50;;
14554;SDS011;7364;50.870;4.722;2023-06-26T02:44:20;4.90;;;3.20;;
14554;SDS011;7364;50.870;4.722;2023-06-26T02:46:47;7.60;;;3.57;;
14554;SDS011;7364;50.870;4.722;2023-06-26T02:49:15;7.47;;;3.73;;
14554;SDS011;7364;50.870;4.722;2023-06-26T02:51:44;20.83;;;3.93;;
14554;SDS011;7364;50.870;4.722;2023-06-26T02:54:11;8.00;;;3.90;;
14554;SDS011;7364;50.870;4.722;2023-06-26T02:56:38;7.60;;;3.60;;
14554;SDS011;7364;50.870;4.722;2023-06-26T02:59:05;6.43;;;4.00;;
14554;SDS011;7364;50.870;4.722;2023-06-26T03:01:33;5.73;;;3.50;;
14554;SDS011;7364;50.870;4.722;2023-06-26T03:04:00;5.37;;;3.87;;
14554;SDS011;7364;50.870;4.722;2023-06-26T03:06:27;5.73;;;3.60;;
14554;SDS011;7364;50.870;4.722;2023-06-26T03:08:56;10.67;;;4.23;;
14554;SDS011;7364;50.870;4.722;2023-06-26T03:11:23;7.17;;;3.80;;
14554;SDS011;7364;50.870;4.722;2023-06-26T03:13:51;6.10;;;4.00;;
14554;SDS011;7364;50.870;4.722;2023-06-26T03:16:18;5.77;;;3.47;;
14554;SDS011;7364;50.870;4.722;2023-06-26T03:18:45;10.60;;;5.10;;
14554;SDS011;7364;50.870;4.722;2023-06-26T03:21:12;6.10;;;3.77;;
14554;SDS011;7364;50.870;4.722;2023-06-26T03:23:40;10.13;;;4.47;;
14554;SDS011;7364;50.870;4.722;2023-06-26T03:26:09;7.10;;;4.30;;
14554;SDS011;7364;50.870;4.722;2023-06-26T03:28:36;7.13;;;4.20;;
14554;SDS011;7364;50.870;4.722;2023-06-26T03:31:03;8.33;;;4.23;;
14554;SDS011;7364;50.870;4.722;2023-06-26T03:33:30;8.87;;;4.17;;
14554;SDS011;7364;50.870;4.722;2023-06-26T03:35:58;6.20;;;3.60;;
14554;SDS011;7364;50.870;4.722;2023-06-26T03:38:25;8.20;;;4.73;;
14554;SDS011;7364;50.870;4.722;2023-06-26T03:40:56;7.27;;;3.97;;
14554;SDS011;7364;50.870;4.722;2023-06-26T03:43:25;8.40;;;4.37;;
14554;SDS011;7364;50.870;4.722;2023-06-26T03:45:52;10.50;;;4.13;;
14554;SDS011;7364;50.870;4.722;2023-06-26T03:48:20;6.53;;;4.00;;
14554;SDS011;7364;50.870;4.722;2023-06-26T03:50:47;11.17;;;5.10;;
14554;SDS011;7364;50.870;4.722;2023-06-26T03:53:14;12.77;;;4.80;;
14554;SDS011;7364;50.870;4.722;2023-06-26T03:55:42;6.83;;;4.13;;
14554;SDS011;7364;50.870;4.722;2023-06-26T03:58:09;7.93;;;4.40;;
14554;SDS011;7364;50.870;4.722;2023-06-26T04:00:38;7.43;;;4.50;;
14554;SDS011;7364;50.870;4.722;2023-06-26T04:03:05;10.60;;;4.90;;
14554;SDS011;7364;50.870;4.722;2023-06-26T04:05:34;9.07;;;4.33;;
14554;SDS011;7364;50.870;4.722;2023-06-26T04:08:02;11.13;;;5.13;;
14554;SDS011;7364;50.870;4.722;2023-06-26T04:10:29;10.67;;;4.87;;
14554;SDS011;7364;50.870;4.722;2023-06-26T04:12:56;6.23;;;4.23;;
14554;SDS011;7364;50.870;4.722;2023-06-26T04:15:24;9.17;;;4.67;;
14554;SDS011;7364;50.870;4.722;2023-06-26T04:17:52;7.67;;;4.23;;
14554;SDS011;7364;50.870;4.722;2023-06-26T04:20:20;9.53;;;5.00;;
14554;SDS011;7364;50.870;4.722;2023-06-26T04:22:47;13.47;;;5.10;;
14554;SDS011;7364;50.870;4.722;2023-06-26T04:25:14;9.50;;;4.27;;
14554;SDS011;7364;50.870;4.722;2023-06-26T04:27:42;11.17;;;4.80;;
14554;SDS011;7364;50.870;4.722;2023-06-26T04:30:09;10.43;;;4.30;;
14554;SDS011;7364;50.870;4.722;2023-06-26T04:32:38;7.97;;;4.30;;
14554;SDS011;7364;50.870;4.722;2023-06-26T04:35:07;5.50;;;4.00;;
14554;SDS011;7364;50.870;4.722;2023-06-26T04:37:35;10.13;;;4.80;;
14554;SDS011;7364;50.870;4.722;2023-06-26T04:40:06;10.87;;;5.00;;
14554;SDS011;7364;50.870;4.722;2023-06-26T04:42:36;9.83;;;4.57;;
14554;SDS011;7364;50.870;4.722;2023-06-26T04:45:05;7.83;;;4.77;;
14554;SDS011;7364;50.870;4.722;2023-06-26T04:47:33;9.50;;;4.40;;
14554;SDS011;7364;50.870;4.722;2023-06-26T04:50:00;7.70;;;3.87;;
14554;SDS011;7364;50.870;4.722;2023-06-26T04:52:29;10.10;;;4.77;;
14554;SDS011;7364;50.870;4.722;2023-06-26T04:54:56;12.73;;;4.60;;
14554;SDS011;7364;50.870;4.722;2023-06-26T04:57:23;8.37;;;3.67;;
14554;SDS011;7364;50.870;4.722;2023-06-26T04:59:51;7.97;;;4.43;;
14554;SDS011;7364;50.870;4.722;2023-06-26T05:02:18;10.50;;;4.20;;
14554;SDS011;7364;50.870;4.722;2023-06-26T05:04:45;7.97;;;4.17;;
14554;SDS011;7364;50.870;4.722;2023-06-26T05:07:13;11.90;;;4.23;;
14554;SDS011;7364;50.870;4.722;2023-06-26T05:09:42;7.67;;;4.60;;
14554;SDS011;7364;50.870;4.722;2023-06-26T05:12:09;9.83;;;4.80;;
14554;SDS011;7364;50.870;4.722;2023-06-26T05:14:38;11.87;;;4.53;;
14554;SDS011;7364;50.870;4.722;2023-06-26T05:17:05;11.00;;;4.20;;
14554;SDS011;7364;50.870;4.722;2023-06-26T05:19:32;9.13;;;4.43;;
14554;SDS011;7364;50.870;4.722;2023-06-26T05:22:00;6.97;;;3.63;;
14554;SDS011;7364;50.870;4.722;2023-06-26T05:24:28;8.50;;;4.07;;
14554;SDS011;7364;50.870;4.722;2023-06-26T05:26:59;10.73;;;4.40;;
14554;SDS011;7364;50.870;4.722;2023-06-26T05:29:27;9.33;;;4.33;;
14554;SDS011;7364;50.870;4.722;2023-06-26T05:31:54;10.47;;;4.23;;
14554;SDS011;7364;50.870;4.722;2023-06-26T05:34:23;8.20;;;3.77;;
14554;SDS011;7364;50.870;4.722;2023-06-26T05:36:54;7.87;;;2.97;;
14554;SDS011;7364;50.870;4.722;2023-06-26T05:39:24;9.53;;;3.83;;
14554;SDS011;7364;50.870;4.722;2023-06-26T05:41:52;15.13;;;4.57;;
14554;SDS011;7364;50.870;4.722;2023-06-26T05:44:21;6.97;;;3.53;;
14554;SDS011;7364;50.870;4.722;2023-06-26T05:46:48;9.10;;;3.73;;
14554;SDS011;7364;50.870;4.722;2023-06-26T05:49:16;6.37;;;3.10;;
14554;SDS011;7364;50.870;4.722;2023-06-26T05:51:44;6.77;;;3.00;;
14554;SDS011;7364;50.870;4.722;2023-06-26T05:54:11;10.30;;;3.17;;
14554;SDS011;7364;50.870;4.722;2023-06-26T05:56:40;5.93;;;3.07;;
14554;SDS011;7364;50.870;4.722;2023-06-26T05:59:07;11.00;;;3.40;;
14554;SDS011;7364;50.870;4.722;2023-06-26T06:01:36;10.50;;;3.93;;
14554;SDS011;7364;50.870;4.722;2023-06-26T06:04:04;7.47;;;3.90;;
14554;SDS011;7364;50.870;4.722;2023-06-26T06:06:31;9.47;;;3.30;;
14554;SDS011;7364;50.870;4.722;2023-06-26T06:08:59;6.63;;;2.93;;
14554;SDS011;7364;50.870;4.722;2023-06-26T06:11:26;7.80;;;3.00;;
14554;SDS011;7364;50.870;4.722;2023-06-26T06:13:53;7.50;;;3.33;;
14554;SDS011;7364;50.870;4.722;2023-06-26T06:16:21;9.30;;;3.77;;
14554;SDS011;7364;50.870;4.722;2023-06-26T06:18:49;8.37;;;3.33;;
14554;SDS011;7364;50.870;4.722;2023-06-26T06:21:19;10.67;;;3.50;;
14554;SDS011;7364;50.870;4.722;2023-06-26T06:23:47;5.93;;;3.10;;
14554;SDS011;7364;50.870;4.722;2023-06-26T06:26:14;8.23;;;3.40;;
14554;SDS011;7364;50.870;4.722;2023-06-26T06:28:42;7.27;;;3.17;;
14554;SDS011;7364;50.870;4.722;2023-06-26T06:31:09;7.83;;;3.00;;
14554;SDS011;7364;50.870;4.722;2023-06-26T06:33:36;4.47;;;2.63;;
14554;SDS011;7364;50.870;4.722;2023-06-26T06:36:05;8.53;;;3.90;;
14554;SDS011;7364;50.870;4.722;2023-06-26T06:38:33;10.87;;;2.70;;
14554;SDS011;7364;50.870;4.722;2023-06-26T06:41:00;4.97;;;2.67;;
14554;SDS011;7364;50.870;4.722;2023-06-26T06:43:27;8.57;;;3.50;;
14554;SDS011;7364;50.870;4.722;2023-06-26T06:45:55;6.53;;;2.83;;
14554;SDS011;7364;50.870;4.722;2023-06-26T06:48:22;10.10;;;2.90;;
14554;SDS011;7364;50.870;4.722;2023-06-26T06:50:49;7.60;;;3.03;;
14554;SDS011;7364;50.870;4.722;2023-06-26T06:53:18;7.13;;;3.40;;
14554;SDS011;7364;50.870;4.722;2023-06-26T06:55:46;5.87;;;3.10;;
14554;SDS011;7364;50.870;4.722;2023-06-26T06:58:14;5.07;;;2.20;;
14554;SDS011;7364;50.870;4.722;2023-06-26T07:00:44;9.73;;;3.30;;
14554;SDS011;7364;50.870;4.722;2023-06-26T07:03:11;9.03;;;3.20;;
14554;SDS011;7364;50.870;4.722;2023-06-26T07:05:40;5.73;;;2.87;;
14554;SDS011;7364;50.870;4.722;2023-06-26T07:08:08;6.50;;;2.10;;
14554;SDS011;7364;50.870;4.722;2023-06-26T07:10:37;5.40;;;2.33;;
14554;SDS011;7364;50.870;4.722;2023-06-26T07:13:04;5.00;;;2.43;;
14554;SDS011;7364;50.870;4.722;2023-06-26T07:15:31;6.33;;;2.60;;
14554;SDS011;7364;50.870;4.722;2023-06-26T07:17:59;5.17;;;2.17;;
14554;SDS011;7364;50.870;4.722;2023-06-26T07:20:26;6.90;;;2.80;;
14554;SDS011;7364;50.870;4.722;2023-06-26T07:22:54;4.13;;;2.60;;
14554;SDS011;7364;50.870;4.722;2023-06-26T07:25:21;7.90;;;2.83;;
14554;SDS011;7364;50.870;4.722;2023-06-26T07:27:50;4.70;;;2.23;;
14554;SDS011;7364;50.870;4.722;2023-06-26T07:30:17;8.40;;;2.33;;
14554;SDS011;7364;50.870;4.722;2023-06-26T07:32:45;6.90;;;2.60;;
14554;SDS011;7364;50.870;4.722;2023-06-26T07:35:13;7.90;;;2.63;;
14554;SDS011;7364;50.870;4.722;2023-06-26T07:37:40;5.80;;;2.57;;
14554;SDS011;7364;50.870;4.722;2023-06-26T07:40:08;8.07;;;2.70;;
14554;SDS011;7364;50.870;4.722;2023-06-26T07:42:36;8.07;;;2.97;;
14554;SDS011;7364;50.870;4.722;2023-06-26T07:45:05;5.47;;;2.40;;
14554;SDS011;7364;50.870;4.722;2023-06-26T07:47:36;7.63;;;2.97;;
14554;SDS011;7364;50.870;4.722;2023-06-26T07:50:04;6.90;;;2.77;;
14554;SDS011;7364;50.870;4.722;2023-06-26T07:52:31;4.90;;;2.07;;
14554;SDS011;7364;50.870;4.722;2023-06-26T07:54:59;4.60;;;2.23;;
14554;SDS011;7364;50.870;4.722;2023-06-26T07:57:26;6.67;;;2.07;;
14554;SDS011;7364;50.870;4.722;2023-06-26T07:59:53;4.37;;;2.20;;
14554;SDS011;7364;50.870;4.722;2023-06-26T08:02:22;5.00;;;1.77;;
14554;SDS011;7364;50.870;4.722;2023-06-26T08:04:50;4.60;;;1.97;;
14554;SDS011;7364;50.870;4.722;2023-06-26T08:07:17;8.10;;;2.57;;
14554;SDS011;7364;50.870;4.722;2023-06-26T08:09:45;4.47;;;2.10;;
14554;SDS011;7364;50.870;4.722;2023-06-26T08:12:12;4.93;;;1.93;;
14554;SDS011;7364;50.870;4.722;2023-06-26T08:14:40;4.40;;;2.40;;
14554;SDS011;7364;50.870;4.722;2023-06-26T08:17:07;12.23;;;2.63;;
14554;SDS011;7364;50.870;4.722;2023-06-26T08:19:36;8.03;;;2.60;;
14554;SDS011;7364;50.870;4.722;2023-06-26T08:22:03;4.43;;;2.03;;
14554;SDS011;7364;50.870;4.722;2023-06-26T08:24:31;3.27;;;1.90;;
14554;SDS011;7364;50.870;4.722;2023-06-26T08:26:58;6.77;;;2.17;;
14554;SDS011;7364;50.870;4.722;2023-06-26T08:29:25;3.33;;;1.73;;
14554;SDS011;7364;50.870;4.722;2023-06-26T08:31:53;7.83;;;2.10;;
14554;SDS011;7364;50.870;4.722;2023-06-26T08:34:20;10.80;;;2.40;;
14554;SDS011;7364;50.870;4.722;2023-06-26T08:36:49;3.60;;;1.80;;
14554;SDS011;7364;50.870;4.722;2023-06-26T08:39:16;5.30;;;2.20;;
14554;SDS011;7364;50.870;4.722;2023-06-26T08:41:44;6.03;;;1.90;;
14554;SDS011;7364;50.870;4.722;2023-06-26T08:44:11;5.57;;;2.20;;
14554;SDS011;7364;50.870;4.722;2023-06-26T08:46:38;9.00;;;1.87;;
14554;SDS011;7364;50.870;4.722;2023-06-26T08:49:08;7.53;;;2.63;;
14554;SDS011;7364;50.870;4.722;2023-06-26T08:51:40;3.47;;;1.73;;
14554;SDS011;7364;50.870;4.722;2023-06-26T08:54:12;4.17;;;2.13;;
14554;SDS011;7364;50.870;4.722;2023-06-26T08:56:44;2.83;;;1.77;;
14554;SDS011;7364;50.870;4.722;2023-06-26T08:59:14;7.43;;;2.33;;
14554;SDS011;7364;50.870;4.722;2023-06-26T09:01:42;7.90;;;2.30;;
14554;SDS011;7364;50.870;4.722;2023-06-26T09:04:10;8.07;;;2.67;;
14554;SDS011;7364;50.870;4.722;2023-06-26T09:06:37;5.33;;;1.80;;
14554;SDS011;7364;50.870;4.722;2023-06-26T09:09:05;7.33;;;2.60;;
14554;SDS011;7364;50.870;4.722;2023-06-26T09:11:34;4.07;;;2.20;;
14554;SDS011;7364;50.870;4.722;2023-06-26T09:14:01;6.73;;;2.03;;
14554;SDS011;7364;50.870;4.722;2023-06-26T09:16:31;3.37;;;1.53;;
14554;SDS011;7364;50.870;4.722;2023-06-26T09:18:58;8.23;;;2.00;;
14554;SDS011;7364;50.870;4.722;2023-06-26T09:21:25;8.20;;;2.43;;
14554;SDS011;7364;50.870;4.722;2023-06-26T09:23:53;2.70;;;1.63;;
14554;SDS011;7364;50.870;4.722;2023-06-26T09:26:21;3.23;;;1.87;;
14554;SDS011;7364;50.870;4.722;2023-06-26T09:28:50;4.57;;;2.27;;
14554;SDS011;7364;50.870;4.722;2023-06-26T09:31:18;8.17;;;1.60;;
14554;SDS011;7364;50.870;4.722;2023-06-26T09:33:46;8.47;;;1.87;;
14554;SDS011;7364;50.870;4.722;2023-06-26T09:36:18;2.63;;;1.47;;
14554;SDS011;7364;50.870;4.722;2023-06-26T09:38:46;4.93;;;1.80;;
14554;SDS011;7364;50.870;4.722;2023-06-26T09:41:15;3.67;;;1.70;;
14554;SDS011;7364;50.870;4.722;2023-06-26T09:43:46;5.43;;;2.10;;
14554;SDS011;7364;50.870;4.722;2023-06-26T09:46:16;4.13;;;1.40;;
14554;SDS011;7364;50.870;4.722;2023-06-26T09:48:44;2.93;;;1.60;;
14554;SDS011;7364;50.870;4.722;2023-06-26T09:51:11;3.93;;;1.90;;
14554;SDS011;7364;50.870;4.722;2023-06-26T09:53:38;3.90;;;1.70;;
14554;SDS011;7364;50.870;4.722;2023-06-26T09:56:14;3.97;;;1.43;;
14554;SDS011;7364;50.870;4.722;2023-06-26T09:58:43;7.67;;;2.07;;
14554;SDS011;7364;50.870;4.722;2023-06-26T10:01:11;7.40;;;1.97;;
14554;SDS011;7364;50.870;4.722;2023-06-26T10:03:40;2.93;;;1.70;;
14554;SDS011;7364;50.870;4.722;2023-06-26T10:06:07;2.53;;;1.17;;
14554;SDS011;7364;50.870;4.722;2023-06-26T10:08:36;4.60;;;1.60;;
14554;SDS011;7364;50.870;4.722;2023-06-26T10:11:06;3.93;;;1.90;;
14554;SDS011;7364;50.870;4.722;2023-06-26T10:13:37;3.57;;;2.00;;
14554;SDS011;7364;50.870;4.722;2023-06-26T10:16:12;3.53;;;1.70;;
14554;SDS011;7364;50.870;4.722;2023-06-26T10:18:45;2.97;;;1.50;;
14554;SDS011;7364;50.870;4.722;2023-06-26T10:21:12;3.93;;;1.53;;
14554;SDS011;7364;50.870;4.722;2023-06-26T10:23:40;5.73;;;1.70;;
14554;SDS011;7364;50.870;4.722;2023-06-26T10:26:10;6.70;;;2.03;;
14554;SDS011;7364;50.870;4.722;2023-06-26T10:28:39;4.57;;;1.90;;
14554;SDS011;7364;50.870;4.722;2023-06-26T10:31:08;3.10;;;1.70;;
14554;SDS011;7364;50.870;4.722;2023-06-26T10:33:36;6.47;;;1.80;;
14554;SDS011;7364;50.870;4.722;2023-06-26T10:36:15;3.50;;;1.90;;
14554;SDS011;7364;50.870;4.722;2023-06-26T10:38:50;10.07;;;1.60;;
14554;SDS011;7364;50.870;4.722;2023-06-26T10:41:20;3.63;;;1.80;;
14554;SDS011;7364;50.870;4.722;2023-06-26T10:43:49;4.13;;;1.50;;
14554;SDS011;7364;50.870;4.722;2023-06-26T10:46:18;3.50;;;1.70;;
14554;SDS011;7364;50.870;4.722;2023-06-26T10:48:56;5.23;;;1.53;;
14554;SDS011;7364;50.870;4.722;2023-06-26T10:51:26;3.43;;;1.47;;
14554;SDS011;7364;50.870;4.722;2023-06-26T10:53:54;3.73;;;1.27;;
14554;SDS011;7364;50.870;4.722;2023-06-26T10:59:21;5.60;;;2.07;;
14554;SDS011;7364;50.870;4.722;2023-06-26T11:01:54;3.63;;;1.67;;
14554;SDS011;7364;50.870;4.722;2023-06-26T11:04:35;5.30;;;1.43;;
14554;SDS011;7364;50.870;4.722;2023-06-26T11:07:21;2.80;;;1.40;;
14554;SDS011;7364;50.870;4.722;2023-06-26T11:09:56;3.13;;;1.40;;
14554;SDS011;7364;50.870;4.722;2023-06-26T11:12:37;4.63;;;2.03;;
14554;SDS011;7364;50.870;4.722;2023-06-26T11:15:07;4.70;;;1.30;;
14554;SDS011;7364;50.870;4.722;2023-06-26T11:17:35;2.93;;;1.60;;
14554;SDS011;7364;50.870;4.722;2023-06-26T11:20:05;2.70;;;1.73;;
14554;SDS011;7364;50.870;4.722;2023-06-26T11:22:36;2.30;;;1.17;;
14554;SDS011;7364;50.870;4.722;2023-06-26T11:25:04;6.83;;;2.17;;
14554;SDS011;7364;50.870;4.722;2023-06-26T11:27:32;6.20;;;1.77;;
14554;SDS011;7364;50.870;4.722;2023-06-26T11:30:04;3.13;;;1.73;;
14554;SDS011;7364;50.870;4.722;2023-06-26T11:32:32;3.33;;;1.57;;
14554;SDS011;7364;50.870;4.722;2023-06-26T11:35:00;4.13;;;1.67;;
14554;SDS011;7364;50.870;4.722;2023-06-26T11:37:30;1.83;;;1.43;;
14554;SDS011;7364;50.870;4.722;2023-06-26T11:39:59;3.93;;;1.67;;
14554;SDS011;7364;50.870;4.722;2023-06-26T11:42:26;3.27;;;1.80;;
14554;SDS011;7364;50.870;4.722;2023-06-26T11:44:55;3.20;;;2.10;;
14554;SDS011;7364;50.870;4.722;2023-06-26T11:47:22;4.03;;;1.30;;
14554;SDS011;7364;50.870;4.722;2023-06-26T11:49:50;3.70;;;1.80;;
14554;SDS011;7364;50.870;4.722;2023-06-26T11:52:18;3.57;;;1.60;;
14554;SDS011;7364;50.870;4.722;2023-06-26T11:54:45;4.13;;;1.90;;
14554;SDS011;7364;50.870;4.722;2023-06-26T11:57:16;3.63;;;1.37;;
14554;SDS011;7364;50.870;4.722;2023-06-26T11:59:44;3.87;;;1.87;;
14554;SDS011;7364;50.870;4.722;2023-06-26T12:02:12;4.63;;;1.83;;
14554;SDS011;7364;50.870;4.722;2023-06-26T12:04:42;5.37;;;2.10;;
14554;SDS011;7364;50.870;4.722;2023-06-26T12:07:10;5.97;;;2.20;;
14554;SDS011;7364;50.870;4.722;2023-06-26T12:09:39;3.60;;;1.80;;
14554;SDS011;7364;50.870;4.722;2023-06-26T12:12:08;4.07;;;1.90;;
14554;SDS011;7364;50.870;4.722;2023-06-26T12:14:37;6.07;;;2.00;;
14554;SDS011;7364;50.870;4.722;2023-06-26T12:17:08;4.60;;;2.27;;
14554;SDS011;7364;50.870;4.722;2023-06-26T12:19:37;6.10;;;2.37;;
14554;SDS011;7364;50.870;4.722;2023-06-26T12:22:08;3.80;;;2.30;;
14554;SDS011;7364;50.870;4.722;2023-06-26T12:24:36;5.27;;;2.60;;
14554;SDS011;7364;50.870;4.722;2023-06-26T12:27:07;3.90;;;2.57;;
14554;SDS011;7364;50.870;4.722;2023-06-26T12:29:36;3.53;;;2.27;;
14554;SDS011;7364;50.870;4.722;2023-06-26T12:32:08;3.67;;;2.30;;
14554;SDS011;7364;50.870;4.722;2023-06-26T12:34:36;3.53;;;1.90;;
14554;SDS011;7364;50.870;4.722;2023-06-26T12:37:05;2.67;;;1.63;;
14554;SDS011;7364;50.870;4.722;2023-06-26T12:39:44;3.83;;;1.50;;
14554;SDS011;7364;50.870;4.722;2023-06-26T12:42:13;2.00;;;1.20;;
14554;SDS011;7364;50.870;4.722;2023-06-26T12:44:43;2.60;;;1.43;;
14554;SDS011;7364;50.870;4.722;2023-06-26T12:47:11;9.87;;;2.43;;
14554;SDS011;7364;50.870;4.722;2023-06-26T12:49:40;4.33;;;1.87;;
14554;SDS011;7364;50.870;4.722;2023-06-26T12:52:09;2.53;;;1.73;;
14554;SDS011;7364;50.870;4.722;2023-06-26T12:54:38;2.97;;;1.83;;
14554;SDS011;7364;50.870;4.722;2023-06-26T12:57:06;2.87;;;1.70;;
14554;SDS011;7364;50.870;4.722;2023-06-26T12:59:34;3.50;;;2.00;;
14554;SDS011;7364;50.870;4.722;2023-06-26T13:02:04;3.60;;;2.00;;
14554;SDS011;7364;50.870;4.722;2023-06-26T13:04:32;6.37;;;2.30;;
14554;SDS011;7364;50.870;4.722;2023-06-26T13:07:00;5.90;;;2.23;;
14554;SDS011;7364;50.870;4.722;2023-06-26T13:09:31;5.03;;;2.30;;
14554;SDS011;7364;50.870;4.722;2023-06-26T13:12:00;6.93;;;2.33;;
14554;SDS011;7364;50.870;4.722;2023-06-26T13:14:28;4.20;;;1.70;;
14554;SDS011;7364;50.870;4.722;2023-06-26T13:16:56;6.97;;;2.20;;
14554;SDS011;7364;50.870;4.722;2023-06-26T13:19:24;5.40;;;1.73;;
14554;SDS011;7364;50.870;4.722;2023-06-26T13:21:52;7.63;;;2.63;;
14554;SDS011;7364;50.870;4.722;2023-06-26T13:24:19;4.40;;;2.03;;
14554;SDS011;7364;50.870;4.722;2023-06-26T13:26:47;5.27;;;1.90;;
14554;SDS011;7364;50.870;4.722;2023-06-26T13:29:14;4.17;;;1.93;;
14554;SDS011;7364;50.870;4.722;2023-06-26T13:31:41;3.60;;;2.00;;
14554;SDS011;7364;50.870;4.722;2023-06-26T13:34:09;6.03;;;2.00;;
14554;SDS011;7364;50.870;4.722;2023-06-26T13:36:47;4.73;;;1.83;;
14554;SDS011;7364;50.870;4.722;2023-06-26T13:39:14;3.43;;;2.07;;
14554;SDS011;7364;50.870;4.722;2023-06-26T13:41:42;4.07;;;1.73;;
14554;SDS011;7364;50.870;4.722;2023-06-26T13:44:10;4.93;;;1.80;;
14554;SDS011;7364;50.870;4.722;2023-06-26T13:46:37;4.87;;;1.90;;
14554;SDS011;7364;50.870;4.722;2023-06-26T13:49:04;3.80;;;1.83;;
14554;SDS011;7364;50.870;4.722;2023-06-26T13:51:31;4.70;;;2.17;;
14554;SDS011;7364;50.870;4.722;2023-06-26T13:54:00;5.37;;;2.10;;
14554;SDS011;7364;50.870;4.722;2023-06-26T13:56:27;3.50;;;2.03;;
14554;SDS011;7364;50.870;4.722;2023-06-26T13:58:55;3.03;;;1.90;;
14554;SDS011;7364;50.870;4.722;2023-06-26T14:01:23;6.93;;;2.00;;
14554;SDS011;7364;50.870;4.722;2023-06-26T14:03:50;3.07;;;1.70;;
14554;SDS011;7364;50.870;4.722;2023-06-26T14:06:18;4.00;;;1.77;;
14554;SDS011;7364;50.870;4.722;2023-06-26T14:08:45;4.80;;;2.03;;
14554;SDS011;7364;50.870;4.722;2023-06-26T14:11:14;2.97;;;1.73;;
14554;SDS011;7364;50.870;4.722;2023-06-26T14:13:42;4.23;;;1.93;;
14554;SDS011;7364;50.870;4.722;2023-06-26T14:16:09;3.07;;;1.77;;
14554;SDS011;7364;50.870;4.722;2023-06-26T14:18:36;3.07;;;1.83;;
14554;SDS011;7364;50.870;4.722;2023-06-26T14:21:04;2.80;;;1.77;;
14554;SDS011;7364;50.870;4.722;2023-06-26T14:23:31;4.73;;;2.33;;
14554;SDS011;7364;50.870;4.722;2023-06-26T14:25:58;4.00;;;2.10;;
14554;SDS011;7364;50.870;4.722;2023-06-26T14:28:27;8.67;;;2.53;;
14554;SDS011;7364;50.870;4.722;2023-06-26T14:30:54;5.00;;;1.70;;
14554;SDS011;7364;50.870;4.722;2023-06-26T14:33:22;3.93;;;2.13;;
14554;SDS011;7364;50.870;4.722;2023-06-26T14:35:49;4.13;;;2.03;;
14554;SDS011;7364;50.870;4.722;2023-06-26T14:38:16;4.97;;;2.10;;
14554;SDS011;7364;50.870;4.722;2023-06-26T14:40:43;3.13;;;1.87;;
14554;SDS011;7364;50.870;4.722;2023-06-26T14:43:11;4.00;;;2.20;;
14554;SDS011;7364;50.870;4.722;2023-06-26T14:45:42;4.33;;;2.10;;
14554;SDS011;7364;50.870;4.722;2023-06-26T14:48:10;5.77;;;1.93;;
14554;SDS011;7364;50.870;4.722;2023-06-26T14:50:37;6.17;;;2.07;;
14554;SDS011;7364;50.870;4.722;2023-06-26T14:53:04;6.77;;;2.17;;
14554;SDS011;7364;50.870;4.722;2023-06-26T14:55:31;6.07;;;2.23;;
14554;SDS011;7364;50.870;4.722;2023-06-26T14:57:58;5.40;;;2.07;;
14554;SDS011;7364;50.870;4.722;2023-06-26T15:00:27;3.93;;;1.90;;
14554;SDS011;7364;50.870;4.722;2023-06-26T15:02:55;4.57;;;1.80;;
14554;SDS011;7364;50.870;4.722;2023-06-26T15:05:23;4.33;;;2.00;;
14554;SDS011;7364;50.870;4.722;2023-06-26T15:07:51;3.33;;;1.83;;
14554;SDS011;7364;50.870;4.722;2023-06-26T15:10:18;6.33;;;2.07;;